createdAt,value
2022-08-19T00:01:57.452Z,11.38
2022-08-19T00:04:31.387Z,11.57
2022-08-19T00:06:59.233Z,11.52
2022-08-19T00:09:27.025Z,11.48
2022-08-19T00:11:56.310Z,11.43
2022-08-19T00:14:25.233Z,11.30
2022-08-19T00:16:55.001Z,11.75
2022-08-19T00:19:22.799Z,11.15
2022-08-19T00:21:49.656Z,10.95
2022-08-19T00:24:17.003Z,11.00
2022-08-19T00:26:46.050Z,11.95
2022-08-19T00:29:16.842Z,10.25
2022-08-19T00:31:44.759Z,12.07
2022-08-19T00:34:14.161Z,11.57
2022-08-19T00:36:42.986Z,11.85
2022-08-19T00:39:11.346Z,12.75
2022-08-19T00:41:38.509Z,11.55
2022-08-19T00:44:14.996Z,10.68
2022-08-19T00:46:55.449Z,11.23
2022-08-19T00:49:31.086Z,11.75
2022-08-19T00:52:09.468Z,12.35
2022-08-19T00:54:38.462Z,11.32
2022-08-19T00:57:10.622Z,11.68
2022-08-19T00:59:58.765Z,11.60
2022-08-19T01:02:35.230Z,11.90
2022-08-19T01:05:07.511Z,11.85
2022-08-19T01:07:38.291Z,11.40
2022-08-19T01:10:15.362Z,11.85
2022-08-19T01:12:42.686Z,12.00
2022-08-19T01:15:12.963Z,11.30
2022-08-19T01:17:41.847Z,12.07
2022-08-19T01:20:18.394Z,12.23
2022-08-19T01:22:51.152Z,11.82
2022-08-19T01:25:23.118Z,11.85
2022-08-19T01:27:54.260Z,11.20
2022-08-19T01:30:29.033Z,11.32
2022-08-19T01:32:57.289Z,11.38
2022-08-19T01:35:27.624Z,10.68
2022-08-19T01:38:00.416Z,10.85
2022-08-19T01:40:33.605Z,10.35
2022-08-19T01:43:01.396Z,10.88
2022-08-19T01:45:31.364Z,11.50
2022-08-19T01:48:01.319Z,10.80
2022-08-19T01:50:31.766Z,10.52
2022-08-19T01:53:05.881Z,9.30
2022-08-19T01:55:36.345Z,10.10
2022-08-19T01:58:19.606Z,9.50
2022-08-19T02:00:47.866Z,10.27
2022-08-19T02:03:14.990Z,10.73
2022-08-19T02:05:43.261Z,10.45
2022-08-19T02:08:10.894Z,10.20
2022-08-19T02:10:43.545Z,11.55
2022-08-19T02:13:14.301Z,10.13
2022-08-19T02:15:41.585Z,10.38
2022-08-19T02:18:09.145Z,10.65
2022-08-19T02:20:37.565Z,11.73
2022-08-19T02:23:04.775Z,11.18
2022-08-19T02:25:31.622Z,11.07
2022-08-19T02:27:58.297Z,10.02
2022-08-19T02:30:25.806Z,11.25
2022-08-19T02:32:53.381Z,11.18
2022-08-19T02:35:20.429Z,10.85
2022-08-19T02:38:05.538Z,11.43
2022-08-19T02:40:36.137Z,10.75
2022-08-19T02:43:09.400Z,11.52
2022-08-19T02:45:40.556Z,11.00
2022-08-19T02:48:21.240Z,11.20
2022-08-19T02:50:55.969Z,10.77
2022-08-19T02:53:28.215Z,11.05
2022-08-19T02:55:55.145Z,11.05
2022-08-19T02:58:23.212Z,10.93
2022-08-19T03:00:55.223Z,11.32
2022-08-19T03:03:22.433Z,10.95
2022-08-19T03:05:56.432Z,11.10
2022-08-19T03:08:25.042Z,11.65
2022-08-19T03:10:52.948Z,11.23
2022-08-19T03:13:19.652Z,11.35
2022-08-19T03:15:49.201Z,10.65
2022-08-19T03:18:17.866Z,11.10
2022-08-19T03:20:50.286Z,11.35
2022-08-19T03:23:18.317Z,10.98
2022-08-19T03:25:58.404Z,11.57
2022-08-19T03:28:33.561Z,11.50
2022-08-19T03:31:41.467Z,11.73
2022-08-19T03:33:54.574Z,11.70
2022-08-19T03:36:28.606Z,12.57
2022-08-19T03:39:00.224Z,12.40
2022-08-19T03:41:44.969Z,11.75
2022-08-19T03:44:19.281Z,11.98
2022-08-19T03:46:53.269Z,12.77
2022-08-19T03:49:21.142Z,12.70
2022-08-19T03:51:55.263Z,11.65
2022-08-19T03:54:24.632Z,11.68
2022-08-19T03:56:54.501Z,11.73
2022-08-19T03:59:34.357Z,10.68
2022-08-19T04:02:09.261Z,11.32
2022-08-19T04:04:38.327Z,10.60
2022-08-19T04:07:05.559Z,11.00
2022-08-19T04:09:34.550Z,11.13
2022-08-19T04:12:01.265Z,11.30
2022-08-19T04:14:31.044Z,10.63
2022-08-19T04:16:59.773Z,11.38
2022-08-19T04:19:27.266Z,10.30
2022-08-19T04:21:55.413Z,10.85
2022-08-19T04:24:23.604Z,9.98
2022-08-19T04:26:51.178Z,10.88
2022-08-19T04:29:25.993Z,11.00
2022-08-19T04:31:55.333Z,10.95
2022-08-19T04:34:25.074Z,10.50
2022-08-19T04:36:54.101Z,10.40
2022-08-19T04:39:45.254Z,11.25
2022-08-19T04:42:31.270Z,10.38
2022-08-19T04:44:59.414Z,11.15
2022-08-19T04:47:46.915Z,11.23
2022-08-19T04:50:13.046Z,9.93
2022-08-19T04:52:43.670Z,10.90
2022-08-19T04:55:12.035Z,9.13
2022-08-19T04:57:40.975Z,9.80
2022-08-19T05:00:09.886Z,9.98
2022-08-19T05:02:38.954Z,10.27
2022-08-19T05:05:07.292Z,9.18
2022-08-19T05:07:34.400Z,9.05
2022-08-19T05:10:02.069Z,9.00
2022-08-19T05:12:29.608Z,8.80
2022-08-19T05:14:58.383Z,10.02
2022-08-19T05:17:29.476Z,10.27
2022-08-19T05:20:15.897Z,9.70
2022-08-19T05:22:46.345Z,10.27
2022-08-19T05:25:19.347Z,9.02
2022-08-19T05:27:46.357Z,8.77
2022-08-19T05:30:13.621Z,9.75
2022-08-19T05:32:40.833Z,9.13
2022-08-19T05:35:08.836Z,8.98
2022-08-19T05:37:35.529Z,8.43
2022-08-19T05:40:03.795Z,7.45
2022-08-19T05:42:31.416Z,8.63
2022-08-19T05:44:58.258Z,8.20
2022-08-19T05:47:25.032Z,7.30
2022-08-19T05:49:51.892Z,7.57
2022-08-19T05:52:26.144Z,7.18
2022-08-19T05:54:56.469Z,8.00
2022-08-19T05:57:25.049Z,6.90
2022-08-19T05:59:57.916Z,7.47
2022-08-19T06:02:31.683Z,6.13
2022-08-19T06:04:58.851Z,6.72
2022-08-19T06:07:25.796Z,5.93
2022-08-19T06:10:00.364Z,5.60
2022-08-19T06:12:32.474Z,4.82
2022-08-19T06:15:02.403Z,4.35
2022-08-19T06:17:31.117Z,4.43
2022-08-19T06:19:59.320Z,4.95
2022-08-19T06:22:26.080Z,4.53
2022-08-19T06:24:54.491Z,3.80
2022-08-19T06:27:22.481Z,4.25
2022-08-19T06:29:49.424Z,4.10
2022-08-19T06:32:19.733Z,3.90
2022-08-19T06:34:47.001Z,3.95
2022-08-19T06:37:14.612Z,4.43
2022-08-19T06:39:45.504Z,3.85
2022-08-19T06:42:17.089Z,3.45
2022-08-19T06:44:48.761Z,4.00
2022-08-19T06:47:23.678Z,3.20
2022-08-19T06:49:54.859Z,3.38
2022-08-19T06:52:27.554Z,3.63
2022-08-19T06:54:57.038Z,3.10
2022-08-19T06:57:27.644Z,3.47
2022-08-19T06:59:57.370Z,3.45
2022-08-19T07:02:27.258Z,3.53
2022-08-19T07:04:54.609Z,3.15
2022-08-19T07:07:23.098Z,3.25
2022-08-19T07:09:59.914Z,3.05
2022-08-19T07:12:33.764Z,2.90
2022-08-19T07:15:06.027Z,3.10
2022-08-19T07:17:34.635Z,2.65
2022-08-19T07:20:05.115Z,3.10
2022-08-19T07:22:35.221Z,2.78
2022-08-19T07:25:04.622Z,3.10
2022-08-19T07:27:31.326Z,2.90
2022-08-19T07:30:01.256Z,3.00
2022-08-19T07:32:28.084Z,3.20
2022-08-19T07:34:56.449Z,2.78
2022-08-19T07:37:27.349Z,3.28
2022-08-19T07:39:56.323Z,3.38
2022-08-19T07:42:23.424Z,2.67
2022-08-19T07:44:50.910Z,2.40
2022-08-19T07:47:48.841Z,2.85
2022-08-19T07:50:09.879Z,2.58
2022-08-19T07:52:40.200Z,3.55
2022-08-19T07:55:40.190Z,3.67
2022-08-19T07:57:57.784Z,4.13
2022-08-19T08:00:24.972Z,3.33
2022-08-19T08:02:55.133Z,4.53
2022-08-19T08:05:44.042Z,3.72
2022-08-19T08:08:23.522Z,4.35
2022-08-19T08:10:57.080Z,3.75
2022-08-19T08:13:25.553Z,4.15
2022-08-19T08:15:54.871Z,4.65
2022-08-19T08:18:27.585Z,4.57
2022-08-19T08:20:57.724Z,4.13
2022-08-19T08:23:27.992Z,4.03
2022-08-19T08:25:58.724Z,4.45
2022-08-19T08:28:29.562Z,12.55
2022-08-19T08:30:58.377Z,4.30
2022-08-19T08:33:34.389Z,3.67
2022-08-19T08:36:09.560Z,4.43
2022-08-19T08:38:41.361Z,4.05
2022-08-19T08:41:53.557Z,3.78
2022-08-19T08:44:44.371Z,3.38
2022-08-19T08:47:17.911Z,3.90
2022-08-19T08:50:06.672Z,4.68
2022-08-19T08:52:43.083Z,3.55
2022-08-19T08:55:17.079Z,3.72
2022-08-19T08:57:55.672Z,3.75
2022-08-19T09:00:29.724Z,3.78
2022-08-19T09:02:58.453Z,3.10
2022-08-19T09:05:49.151Z,2.80
2022-08-19T09:09:00.450Z,3.25
2022-08-19T09:11:58.059Z,2.92
2022-08-19T09:14:52.186Z,2.67
2022-08-19T09:17:31.473Z,2.75
2022-08-19T09:20:23.873Z,2.53
2022-08-19T09:22:52.900Z,2.50
2022-08-19T09:25:24.653Z,2.85
2022-08-19T09:27:55.657Z,3.20
2022-08-19T09:30:41.591Z,2.63
2022-08-19T09:33:09.345Z,2.90
2022-08-19T09:35:43.869Z,2.60
2022-08-19T09:38:21.940Z,2.42
2022-08-19T09:40:50.377Z,3.08
2022-08-19T09:43:31.055Z,2.90
2022-08-19T09:46:01.792Z,2.65
2022-08-19T09:48:28.493Z,2.78
2022-08-19T09:50:55.287Z,2.60
2022-08-19T09:53:25.111Z,2.70
2022-08-19T09:55:56.131Z,2.50
2022-08-19T09:58:27.446Z,2.60
2022-08-19T10:00:55.871Z,3.28
2022-08-19T10:03:25.621Z,2.30
2022-08-19T10:06:02.419Z,2.80
2022-08-19T10:08:33.970Z,2.72
2022-08-19T10:11:27.802Z,3.08
2022-08-19T10:13:49.669Z,2.45
2022-08-19T10:16:22.897Z,2.42
2022-08-19T10:18:59.073Z,2.47
2022-08-19T10:21:32.367Z,2.92
2022-08-19T10:24:04.558Z,3.65
2022-08-19T10:26:39.287Z,3.38
2022-08-19T10:29:09.266Z,3.05
2022-08-19T10:31:59.788Z,3.28
2022-08-19T10:34:27.808Z,4.13
2022-08-19T10:36:56.276Z,4.03
2022-08-19T10:39:31.164Z,3.05
2022-08-19T10:41:58.795Z,3.33
2022-08-19T10:44:32.186Z,2.80
2022-08-19T10:47:00.416Z,2.70
2022-08-19T10:49:28.023Z,3.20
2022-08-19T10:52:18.720Z,3.95
2022-08-19T10:55:08.275Z,3.92
2022-08-19T10:58:04.096Z,4.40
2022-08-19T11:00:24.220Z,4.07
2022-08-19T11:02:51.504Z,4.40
2022-08-19T11:05:19.975Z,4.47
2022-08-19T11:07:47.079Z,4.55
2022-08-19T11:10:19.546Z,5.55
2022-08-19T11:12:48.698Z,5.25
2022-08-19T11:15:15.504Z,5.22
2022-08-19T11:17:44.486Z,5.45
2022-08-19T11:20:15.628Z,6.00
2022-08-19T11:22:43.069Z,5.30
2022-08-19T11:25:11.800Z,5.47
2022-08-19T11:27:43.843Z,4.75
2022-08-19T11:30:14.011Z,4.40
2022-08-19T11:32:45.925Z,4.10
2022-08-19T11:35:15.660Z,4.45
2022-08-19T11:37:42.385Z,4.45
2022-08-19T11:40:10.205Z,5.32
2022-08-19T11:42:55.619Z,5.10
2022-08-19T11:45:23.744Z,5.63
2022-08-19T11:47:50.520Z,6.18
2022-08-19T11:50:18.189Z,5.63
2022-08-19T11:52:45.878Z,4.80
2022-08-19T11:55:14.966Z,4.60
2022-08-19T11:57:43.599Z,3.83
2022-08-19T12:00:13.485Z,3.50
2022-08-19T12:02:40.808Z,3.55
2022-08-19T12:05:12.305Z,4.35
2022-08-19T12:07:41.685Z,5.10
2022-08-19T12:10:09.233Z,5.43
2022-08-19T12:12:41.243Z,6.40
2022-08-19T12:15:09.584Z,5.90
2022-08-19T12:17:36.272Z,5.30
2022-08-19T12:20:05.044Z,5.38
2022-08-19T12:22:31.714Z,4.80
2022-08-19T12:24:59.197Z,4.60
2022-08-19T12:27:32.234Z,4.50
2022-08-19T12:30:12.677Z,4.32
2022-08-19T12:32:39.803Z,4.65
2022-08-19T12:35:09.915Z,4.60
2022-08-19T12:37:36.793Z,4.32
2022-08-19T12:40:05.165Z,4.47
2022-08-19T12:42:31.951Z,4.32
2022-08-19T12:44:58.604Z,4.40
2022-08-19T12:47:27.227Z,4.55
2022-08-19T12:49:55.877Z,4.35
2022-08-19T12:52:25.483Z,4.60
2022-08-19T12:54:55.185Z,4.50
2022-08-19T12:57:32.817Z,4.68
2022-08-19T13:00:14.495Z,4.53
2022-08-19T13:02:46.695Z,4.10
2022-08-19T13:05:23.447Z,3.90
2022-08-19T13:07:53.642Z,3.33
2022-08-19T13:10:21.807Z,5.07
2022-08-19T13:12:50.767Z,4.30
2022-08-19T13:15:24.026Z,4.28
2022-08-19T13:17:54.555Z,4.30
2022-08-19T13:20:22.844Z,4.20
2022-08-19T13:22:49.855Z,4.38
2022-08-19T13:25:20.001Z,4.20
2022-08-19T13:27:51.587Z,3.67
2022-08-19T13:30:39.026Z,3.70
2022-08-19T13:33:12.050Z,3.05
2022-08-19T13:36:01.442Z,3.05
2022-08-19T13:38:29.400Z,2.95
2022-08-19T13:40:56.656Z,2.60
2022-08-19T13:43:30.403Z,2.80
2022-08-19T13:45:57.734Z,2.70
2022-08-19T13:48:27.671Z,2.88
2022-08-19T13:50:54.971Z,2.53
2022-08-19T13:53:21.771Z,2.30
2022-08-19T13:55:48.572Z,2.35
2022-08-19T13:58:19.622Z,2.15
2022-08-19T14:00:47.258Z,2.60
2022-08-19T14:03:14.467Z,2.58
2022-08-19T14:05:41.170Z,2.10
2022-08-19T14:08:08.251Z,2.40
2022-08-19T14:10:35.450Z,2.15
2022-08-19T14:13:04.451Z,2.42
2022-08-19T14:15:31.614Z,2.08
2022-08-19T14:17:58.676Z,2.03
2022-08-19T14:20:25.950Z,1.98
2022-08-19T14:22:55.514Z,2.55
2022-08-19T14:25:30.232Z,2.40
2022-08-19T14:27:58.030Z,2.28
2022-08-19T14:30:29.947Z,2.60
2022-08-19T14:33:01.545Z,2.17
2022-08-19T14:35:30.470Z,2.53
2022-08-19T14:37:58.645Z,2.47
2022-08-19T14:40:29.600Z,2.25
2022-08-19T14:43:05.022Z,3.10
2022-08-19T14:45:38.451Z,3.30
2022-08-19T14:48:19.121Z,3.53
2022-08-19T14:50:46.340Z,2.42
2022-08-19T14:53:13.330Z,2.35
2022-08-19T14:55:46.319Z,2.50
2022-08-19T14:58:28.977Z,2.70
2022-08-19T15:01:00.177Z,2.55
2022-08-19T15:03:27.942Z,2.15
2022-08-19T15:05:57.390Z,2.30
2022-08-19T15:08:25.668Z,2.22
2022-08-19T15:10:53.378Z,2.30
2022-08-19T15:13:20.187Z,2.40
2022-08-19T15:15:48.313Z,2.30
2022-08-19T15:18:15.788Z,2.25
2022-08-19T15:20:44.346Z,2.20
2022-08-19T15:23:18.304Z,2.42
2022-08-19T15:25:45.564Z,2.50
2022-08-19T15:28:17.224Z,2.40
2022-08-19T15:30:44.451Z,2.40
2022-08-19T15:33:16.394Z,2.55
2022-08-19T15:35:44.329Z,2.78
2022-08-19T15:38:13.883Z,2.50
2022-08-19T15:40:42.669Z,2.10
2022-08-19T15:43:09.820Z,2.20
2022-08-19T15:45:36.544Z,2.20
2022-08-19T15:48:05.493Z,2.38
2022-08-19T15:50:32.717Z,2.30
2022-08-19T15:53:07.390Z,2.30
2022-08-19T15:55:38.239Z,2.30
2022-08-19T15:58:31.531Z,2.65
2022-08-19T16:01:21.945Z,2.40
2022-08-19T16:04:11.068Z,2.63
2022-08-19T16:06:57.074Z,2.47
2022-08-19T16:09:29.159Z,3.08
2022-08-19T16:12:01.690Z,2.40
2022-08-19T16:14:31.341Z,2.47
2022-08-19T16:16:58.134Z,2.85
2022-08-19T16:19:25.631Z,2.13
2022-08-19T16:21:55.410Z,2.20
2022-08-19T16:24:26.013Z,2.30
2022-08-19T16:26:53.739Z,2.65
2022-08-19T16:29:33.429Z,2.47
2022-08-19T16:32:04.689Z,3.15
2022-08-19T16:34:32.324Z,3.25
2022-08-19T16:37:00.629Z,2.90
2022-08-19T16:39:27.315Z,2.80
2022-08-19T16:41:54.015Z,3.00
2022-08-19T16:44:21.191Z,2.90
2022-08-19T16:46:58.722Z,3.08
2022-08-19T16:49:53.558Z,3.13
2022-08-19T16:52:18.337Z,3.15
2022-08-19T16:54:45.216Z,3.08
2022-08-19T16:57:12.819Z,3.05
2022-08-19T16:59:48.079Z,2.83
2022-08-19T17:02:19.107Z,3.10
2022-08-19T17:04:57.322Z,3.10
2022-08-19T17:07:27.795Z,3.15
2022-08-19T17:09:55.064Z,3.28
2022-08-19T17:12:23.328Z,3.10
2022-08-19T17:14:58.415Z,3.22
2022-08-19T17:17:30.363Z,2.63
2022-08-19T17:19:59.342Z,3.00
2022-08-19T17:22:26.763Z,2.92
2022-08-19T17:24:53.849Z,3.28
2022-08-19T17:27:23.559Z,3.22
2022-08-19T17:29:50.271Z,3.53
2022-08-19T17:32:17.012Z,3.67
2022-08-19T17:34:52.063Z,3.33
2022-08-19T17:37:19.879Z,3.50
2022-08-19T17:39:46.617Z,3.67
2022-08-19T17:42:14.219Z,3.65
2022-08-19T17:44:40.971Z,3.38
2022-08-19T17:47:08.052Z,3.78
2022-08-19T17:49:36.411Z,3.40
2022-08-19T17:52:07.150Z,3.40
2022-08-19T17:54:36.213Z,3.50
2022-08-19T17:57:02.975Z,3.63
2022-08-19T17:59:30.290Z,3.40
2022-08-19T18:01:57.787Z,3.53
2022-08-19T18:04:25.868Z,3.72
2022-08-19T18:06:55.393Z,3.50
2022-08-19T18:09:26.435Z,3.70
2022-08-19T18:11:56.990Z,3.88
2022-08-19T18:14:33.049Z,3.40
2022-08-19T18:17:09.936Z,3.78
2022-08-19T18:19:40.831Z,3.85
2022-08-19T18:22:22.412Z,3.80
2022-08-19T18:24:49.255Z,4.30
2022-08-19T18:27:20.109Z,3.70
2022-08-19T18:29:47.531Z,3.70
2022-08-19T18:32:23.560Z,3.88
2022-08-19T18:34:51.410Z,4.40
2022-08-19T18:37:18.094Z,4.20
2022-08-19T18:40:03.772Z,3.95
2022-08-19T18:42:48.975Z,4.28
2022-08-19T18:45:34.204Z,3.72
2022-08-19T18:48:27.644Z,3.95
2022-08-19T18:50:57.314Z,3.40
2022-08-19T18:53:25.886Z,4.28
2022-08-19T18:55:54.834Z,4.70
2022-08-19T18:58:26.583Z,4.45
2022-08-19T19:00:56.670Z,4.10
2022-08-19T19:03:24.319Z,4.20
2022-08-19T19:05:52.603Z,4.07
2022-08-19T19:08:20.126Z,4.35
2022-08-19T19:10:53.735Z,4.60
2022-08-19T19:13:20.491Z,4.20
2022-08-19T19:15:47.234Z,4.13
2022-08-19T19:18:13.960Z,4.07
2022-08-19T19:20:41.167Z,3.80
2022-08-19T19:23:08.680Z,3.85
2022-08-19T19:25:50.764Z,4.40
2022-08-19T19:28:28.764Z,4.03
2022-08-19T19:31:00.419Z,4.20
2022-08-19T19:33:30.011Z,4.45
2022-08-19T19:35:56.848Z,4.72
2022-08-19T19:38:23.669Z,4.93
2022-08-19T19:40:50.383Z,4.43
2022-08-19T19:43:18.335Z,4.65
2022-08-19T19:45:48.133Z,4.13
2022-08-19T19:48:16.554Z,4.43
2022-08-19T19:50:44.819Z,4.45
2022-08-19T19:53:14.191Z,4.40
2022-08-19T19:55:42.279Z,4.78
2022-08-19T19:58:09.195Z,4.63
2022-08-19T20:00:36.264Z,4.32
2022-08-19T20:03:03.527Z,5.07
2022-08-19T20:05:30.296Z,4.70
2022-08-19T20:08:15.512Z,4.28
2022-08-19T20:10:43.879Z,4.90
2022-08-19T20:13:15.350Z,4.47
2022-08-19T20:15:43.489Z,4.53
2022-08-19T20:18:14.253Z,4.70
2022-08-19T20:20:42.092Z,4.78
2022-08-19T20:23:09.001Z,4.97
2022-08-19T20:25:38.573Z,5.10
2022-08-19T20:28:09.318Z,4.28
2022-08-19T20:30:36.002Z,4.78
2022-08-19T20:33:08.669Z,4.55
2022-08-19T20:35:37.171Z,4.50
2022-08-19T20:38:08.576Z,4.65
2022-08-19T20:40:35.821Z,4.85
2022-08-19T20:43:07.704Z,4.88
2022-08-19T20:45:36.378Z,4.70
2022-08-19T20:48:06.932Z,4.60
2022-08-19T20:50:35.817Z,4.75
2022-08-19T20:53:14.554Z,4.43
2022-08-19T20:55:45.034Z,4.38
2022-08-19T20:58:13.302Z,4.65
2022-08-19T21:00:40.986Z,4.40
2022-08-19T21:03:07.683Z,4.85
2022-08-19T21:05:34.328Z,4.72
2022-08-19T21:08:00.954Z,4.53
2022-08-19T21:10:27.678Z,4.50
2022-08-19T21:12:55.259Z,4.45
2022-08-19T21:15:22.055Z,4.20
2022-08-19T21:17:48.793Z,4.45
2022-08-19T21:20:17.284Z,4.10
2022-08-19T21:22:45.023Z,4.05
2022-08-19T21:25:12.251Z,4.30
2022-08-19T21:27:38.888Z,4.05
2022-08-19T21:30:07.022Z,4.40
2022-08-19T21:32:33.694Z,4.15
2022-08-19T21:35:02.074Z,3.70
2022-08-19T21:37:29.650Z,3.92
2022-08-19T21:39:56.457Z,4.13
2022-08-19T21:42:23.915Z,3.75
2022-08-19T21:44:51.182Z,4.05
2022-08-19T21:47:18.200Z,3.67
2022-08-19T21:49:44.894Z,3.92
2022-08-19T21:52:11.615Z,3.90
2022-08-19T21:54:38.916Z,3.95
2022-08-19T21:57:10.032Z,4.10
2022-08-19T21:59:43.731Z,3.75
2022-08-19T22:02:22.059Z,3.72
2022-08-19T22:04:51.286Z,3.95
2022-08-19T22:07:20.612Z,3.70
2022-08-19T22:09:49.778Z,4.10
2022-08-19T22:12:51.089Z,4.32
2022-08-19T22:15:21.457Z,3.92
2022-08-19T22:17:49.771Z,3.60
2022-08-19T22:20:22.055Z,3.60
2022-08-19T22:22:57.150Z,3.75
2022-08-19T22:25:34.810Z,3.80
2022-08-19T22:28:04.080Z,3.63
2022-08-19T22:30:33.727Z,3.13
2022-08-19T22:33:05.859Z,3.72
2022-08-19T22:35:37.399Z,3.65
2022-08-19T22:38:07.083Z,3.20
2022-08-19T22:40:37.179Z,3.50
2022-08-19T22:43:11.913Z,3.50
2022-08-19T22:45:39.167Z,3.33
2022-08-19T22:48:09.048Z,3.38
2022-08-19T22:50:37.311Z,3.60
2022-08-19T22:53:07.279Z,3.40
2022-08-19T22:55:36.863Z,2.95
2022-08-19T22:58:04.966Z,3.20
2022-08-19T23:00:32.473Z,3.78
2022-08-19T23:02:59.227Z,3.70
2022-08-19T23:05:28.614Z,3.17
2022-08-19T23:07:57.898Z,3.10
2022-08-19T23:10:28.946Z,3.80
2022-08-19T23:12:58.672Z,2.90
2022-08-19T23:15:31.944Z,3.17
2022-08-19T23:18:02.087Z,3.20
2022-08-19T23:20:34.348Z,3.60
2022-08-19T23:23:05.932Z,3.53
2022-08-19T23:25:37.244Z,3.40
2022-08-19T23:28:24.519Z,3.30
2022-08-19T23:30:53.361Z,3.40
2022-08-19T23:33:46.438Z,3.22
2022-08-19T23:36:18.104Z,2.92
2022-08-19T23:38:47.850Z,3.28
2022-08-19T23:41:17.346Z,3.05
2022-08-19T23:43:44.999Z,3.08
2022-08-19T23:46:14.708Z,3.08
2022-08-19T23:48:55.475Z,3.05
2022-08-19T23:51:22.231Z,3.38
2022-08-19T23:53:49.091Z,2.80
2022-08-19T23:56:15.843Z,3.00
2022-08-19T23:58:42.559Z,2.97
